Rechercher aéroport 
image banner adimage banner ad
image banner ad

SVLK - La Vieja

Situé à Anzoategui, Venezuela

ICAO - SVLK, IATA -

Données fournies par Airmate  

Information générale

Coordonnées: N9°41'0" W64°11'0"
Élévation : 296 feet MSL.
 
Voir autres Aéroports à Apure

Données opérationnelles

Accessible au public
Heure actuelle UTC:
Heure actuelle locale:
METAR: SVBC 021502Z AUTO NIL
TAF: TAF SVBC 021000Z 0212/0312 12005KT 9999 SCT016 TX33/0218Z TN25/0208Z PROB30 TEMPO 0212/0216 14004KT 9000 -DZ BKN016
Voir NOTAMs / SUP AIP / TFR affectant cet aéroport [VIEW]
Fréquences de communication: [VIEW]

Pistes:

Identifiant RWYQFULongueur (ft)Largeur (ft)SurfaceLDA (ft)
1000
2800

Coordonnées de l'aéroport

Adresse: Anzoategui Venezuela

Vue satellite de SVLK